sensor_id;sensor_type;location;lat;lon;timestamp;P1;durP1;ratioP1;P2;durP2;ratioP2
10056;SDS011;5068;51.286;7.518;2023-04-03T00:00:08;2.25;;;1.30;;
10056;SDS011;5068;51.286;7.518;2023-04-03T00:01:42;4.32;;;1.52;;
10056;SDS011;5068;51.286;7.518;2023-04-03T00:03:21;3.35;;;1.65;;
10056;SDS011;5068;51.286;7.518;2023-04-03T00:04:54;2.03;;;1.27;;
10056;SDS011;5068;51.286;7.518;2023-04-03T00:06:27;3.20;;;1.67;;
10056;SDS011;5068;51.286;7.518;2023-04-03T00:08:00;2.72;;;1.77;;
10056;SDS011;5068;51.286;7.518;2023-04-03T00:09:34;2.17;;;1.55;;
10056;SDS011;5068;51.286;7.518;2023-04-03T00:11:07;2.83;;;1.50;;
10056;SDS011;5068;51.286;7.518;2023-04-03T00:12:40;3.10;;;1.55;;
10056;SDS011;5068;51.286;7.518;2023-04-03T00:14:14;2.33;;;1.65;;
10056;SDS011;5068;51.286;7.518;2023-04-03T00:15:48;2.15;;;1.33;;
10056;SDS011;5068;51.286;7.518;2023-04-03T00:17:22;1.90;;;1.20;;
10056;SDS011;5068;51.286;7.518;2023-04-03T00:18:55;4.30;;;1.73;;
10056;SDS011;5068;51.286;7.518;2023-04-03T00:20:28;1.75;;;1.25;;
10056;SDS011;5068;51.286;7.518;2023-04-03T00:22:01;2.58;;;1.70;;
10056;SDS011;5068;51.286;7.518;2023-04-03T00:23:34;2.22;;;1.52;;
10056;SDS011;5068;51.286;7.518;2023-04-03T00:25:08;3.28;;;1.38;;
10056;SDS011;5068;51.286;7.518;2023-04-03T00:26:42;2.20;;;1.67;;
10056;SDS011;5068;51.286;7.518;2023-04-03T00:28:15;3.17;;;1.70;;
10056;SDS011;5068;51.286;7.518;2023-04-03T00:29:49;2.65;;;1.50;;
10056;SDS011;5068;51.286;7.518;2023-04-03T00:31:22;2.05;;;1.58;;
10056;SDS011;5068;51.286;7.518;2023-04-03T00:32:56;4.03;;;1.80;;
10056;SDS011;5068;51.286;7.518;2023-04-03T00:34:30;3.80;;;1.55;;
10056;SDS011;5068;51.286;7.518;2023-04-03T00:36:07;2.05;;;1.30;;
10056;SDS011;5068;51.286;7.518;2023-04-03T00:37:42;2.05;;;1.52;;
10056;SDS011;5068;51.286;7.518;2023-04-03T00:39:16;2.13;;;1.40;;
10056;SDS011;5068;51.286;7.518;2023-04-03T00:40:49;2.92;;;1.60;;
10056;SDS011;5068;51.286;7.518;2023-04-03T00:42:23;3.13;;;1.63;;
10056;SDS011;5068;51.286;7.518;2023-04-03T00:43:56;2.22;;;1.50;;
10056;SDS011;5068;51.286;7.518;2023-04-03T00:45:32;2.63;;;1.70;;
10056;SDS011;5068;51.286;7.518;2023-04-03T00:47:09;3.20;;;1.50;;
10056;SDS011;5068;51.286;7.518;2023-04-03T00:48:46;2.70;;;1.67;;
10056;SDS011;5068;51.286;7.518;2023-04-03T00:50:21;2.20;;;1.52;;
10056;SDS011;5068;51.286;7.518;2023-04-03T00:51:54;2.00;;;1.48;;
10056;SDS011;5068;51.286;7.518;2023-04-03T00:53:31;2.58;;;1.50;;
10056;SDS011;5068;51.286;7.518;2023-04-03T00:55:09;2.30;;;1.38;;
10056;SDS011;5068;51.286;7.518;2023-04-03T00:56:42;4.22;;;1.63;;
10056;SDS011;5068;51.286;7.518;2023-04-03T00:58:17;2.70;;;1.40;;
10056;SDS011;5068;51.286;7.518;2023-04-03T00:59:57;2.13;;;1.23;;
10056;SDS011;5068;51.286;7.518;2023-04-03T01:01:37;3.70;;;1.30;;
10056;SDS011;5068;51.286;7.518;2023-04-03T01:03:12;2.10;;;1.20;;
10056;SDS011;5068;51.286;7.518;2023-04-03T01:04:46;1.85;;;1.40;;
10056;SDS011;5068;51.286;7.518;2023-04-03T01:06:20;1.95;;;1.40;;
10056;SDS011;5068;51.286;7.518;2023-04-03T01:08:03;3.13;;;1.33;;
10056;SDS011;5068;51.286;7.518;2023-04-03T01:09:38;2.50;;;1.25;;
10056;SDS011;5068;51.286;7.518;2023-04-03T01:11:12;3.22;;;1.40;;
10056;SDS011;5068;51.286;7.518;2023-04-03T01:12:46;2.10;;;1.30;;
10056;SDS011;5068;51.286;7.518;2023-04-03T01:14:22;3.67;;;1.40;;
10056;SDS011;5068;51.286;7.518;2023-04-03T01:15:55;3.20;;;1.25;;
10056;SDS011;5068;51.286;7.518;2023-04-03T01:17:30;2.08;;;1.20;;
10056;SDS011;5068;51.286;7.518;2023-04-03T01:19:10;2.33;;;1.42;;
10056;SDS011;5068;51.286;7.518;2023-04-03T01:23:18;1.95;;;1.10;;
10056;SDS011;5068;51.286;7.518;2023-04-03T01:25:08;2.42;;;1.10;;
10056;SDS011;5068;51.286;7.518;2023-04-03T01:26:42;2.38;;;1.13;;
10056;SDS011;5068;51.286;7.518;2023-04-03T01:28:17;2.67;;;1.35;;
10056;SDS011;5068;51.286;7.518;2023-04-03T01:29:56;2.53;;;1.30;;
10056;SDS011;5068;51.286;7.518;2023-04-03T01:31:31;4.00;;;1.20;;
10056;SDS011;5068;51.286;7.518;2023-04-03T01:33:18;2.63;;;1.35;;
10056;SDS011;5068;51.286;7.518;2023-04-03T01:34:52;2.17;;;1.20;;
10056;SDS011;5068;51.286;7.518;2023-04-03T01:36:26;2.03;;;1.42;;
10056;SDS011;5068;51.286;7.518;2023-04-03T01:38:02;2.08;;;1.27;;
10056;SDS011;5068;51.286;7.518;2023-04-03T01:39:35;2.72;;;1.20;;
10056;SDS011;5068;51.286;7.518;2023-04-03T01:41:09;1.90;;;1.25;;
10056;SDS011;5068;51.286;7.518;2023-04-03T01:42:41;1.90;;;1.10;;
10056;SDS011;5068;51.286;7.518;2023-04-03T01:44:14;3.10;;;1.40;;
10056;SDS011;5068;51.286;7.518;2023-04-03T01:45:48;3.15;;;1.30;;
10056;SDS011;5068;51.286;7.518;2023-04-03T01:47:25;2.92;;;1.20;;
10056;SDS011;5068;51.286;7.518;2023-04-03T01:48:58;2.13;;;1.10;;
10056;SDS011;5068;51.286;7.518;2023-04-03T01:50:32;1.83;;;1.20;;
10056;SDS011;5068;51.286;7.518;2023-04-03T01:52:06;2.35;;;1.10;;
10056;SDS011;5068;51.286;7.518;2023-04-03T01:53:39;1.33;;;0.85;;
10056;SDS011;5068;51.286;7.518;2023-04-03T01:55:13;3.08;;;1.27;;
10056;SDS011;5068;51.286;7.518;2023-04-03T01:56:46;2.33;;;1.17;;
10056;SDS011;5068;51.286;7.518;2023-04-03T01:58:20;3.13;;;1.30;;
10056;SDS011;5068;51.286;7.518;2023-04-03T01:59:54;1.98;;;1.23;;
10056;SDS011;5068;51.286;7.518;2023-04-03T02:01:28;2.47;;;1.30;;
10056;SDS011;5068;51.286;7.518;2023-04-03T02:03:02;2.28;;;1.10;;
10056;SDS011;5068;51.286;7.518;2023-04-03T02:04:36;2.70;;;1.40;;
10056;SDS011;5068;51.286;7.518;2023-04-03T02:06:09;2.80;;;1.63;;
10056;SDS011;5068;51.286;7.518;2023-04-03T02:07:43;3.17;;;1.15;;
10056;SDS011;5068;51.286;7.518;2023-04-03T02:09:15;2.22;;;1.30;;
10056;SDS011;5068;51.286;7.518;2023-04-03T02:10:49;2.95;;;1.20;;
10056;SDS011;5068;51.286;7.518;2023-04-03T02:12:23;2.55;;;1.02;;
10056;SDS011;5068;51.286;7.518;2023-04-03T02:13:57;3.00;;;1.30;;
10056;SDS011;5068;51.286;7.518;2023-04-03T02:15:30;1.55;;;0.93;;
10056;SDS011;5068;51.286;7.518;2023-04-03T02:17:02;1.63;;;1.15;;
10056;SDS011;5068;51.286;7.518;2023-04-03T02:18:41;2.83;;;1.33;;
10056;SDS011;5068;51.286;7.518;2023-04-03T02:20:14;3.13;;;1.65;;
10056;SDS011;5068;51.286;7.518;2023-04-03T02:21:46;2.67;;;1.40;;
10056;SDS011;5068;51.286;7.518;2023-04-03T02:23:19;3.47;;;1.60;;
10056;SDS011;5068;51.286;7.518;2023-04-03T02:24:54;3.30;;;1.15;;
10056;SDS011;5068;51.286;7.518;2023-04-03T02:26:27;2.42;;;1.40;;
10056;SDS011;5068;51.286;7.518;2023-04-03T02:28:00;2.72;;;1.23;;
10056;SDS011;5068;51.286;7.518;2023-04-03T02:29:34;2.70;;;1.10;;
10056;SDS011;5068;51.286;7.518;2023-04-03T02:31:09;3.72;;;1.35;;
10056;SDS011;5068;51.286;7.518;2023-04-03T02:32:44;2.65;;;1.25;;
10056;SDS011;5068;51.286;7.518;2023-04-03T02:34:19;2.33;;;1.23;;
10056;SDS011;5068;51.286;7.518;2023-04-03T02:35:53;2.45;;;1.40;;
10056;SDS011;5068;51.286;7.518;2023-04-03T02:37:27;2.42;;;1.63;;
10056;SDS011;5068;51.286;7.518;2023-04-03T02:39:01;3.92;;;1.50;;
10056;SDS011;5068;51.286;7.518;2023-04-03T02:40:35;4.95;;;1.50;;
10056;SDS011;5068;51.286;7.518;2023-04-03T02:42:09;3.25;;;1.58;;
10056;SDS011;5068;51.286;7.518;2023-04-03T02:43:42;3.60;;;1.70;;
10056;SDS011;5068;51.286;7.518;2023-04-03T02:45:15;2.60;;;1.80;;
10056;SDS011;5068;51.286;7.518;2023-04-03T02:46:49;2.65;;;1.83;;
10056;SDS011;5068;51.286;7.518;2023-04-03T02:48:21;4.57;;;1.70;;
10056;SDS011;5068;51.286;7.518;2023-04-03T02:49:56;3.00;;;2.03;;
10056;SDS011;5068;51.286;7.518;2023-04-03T02:51:29;3.70;;;1.52;;
10056;SDS011;5068;51.286;7.518;2023-04-03T02:53:03;2.42;;;1.40;;
10056;SDS011;5068;51.286;7.518;2023-04-03T02:54:36;2.90;;;1.70;;
10056;SDS011;5068;51.286;7.518;2023-04-03T02:56:11;4.75;;;1.30;;
10056;SDS011;5068;51.286;7.518;2023-04-03T02:57:44;2.60;;;1.40;;
10056;SDS011;5068;51.286;7.518;2023-04-03T02:59:18;2.63;;;1.30;;
10056;SDS011;5068;51.286;7.518;2023-04-03T03:00:52;5.43;;;1.55;;
10056;SDS011;5068;51.286;7.518;2023-04-03T03:02:26;2.35;;;1.50;;
10056;SDS011;5068;51.286;7.518;2023-04-03T03:03:59;2.45;;;1.33;;
10056;SDS011;5068;51.286;7.518;2023-04-03T03:05:34;2.00;;;1.20;;
10056;SDS011;5068;51.286;7.518;2023-04-03T03:07:07;4.03;;;2.05;;
10056;SDS011;5068;51.286;7.518;2023-04-03T03:08:41;4.07;;;1.70;;
10056;SDS011;5068;51.286;7.518;2023-04-03T03:10:15;3.47;;;1.60;;
10056;SDS011;5068;51.286;7.518;2023-04-03T03:11:49;2.80;;;1.67;;
10056;SDS011;5068;51.286;7.518;2023-04-03T03:13:23;3.35;;;1.40;;
10056;SDS011;5068;51.286;7.518;2023-04-03T03:14:57;2.80;;;1.50;;
10056;SDS011;5068;51.286;7.518;2023-04-03T03:16:30;2.75;;;1.30;;
10056;SDS011;5068;51.286;7.518;2023-04-03T03:18:03;2.17;;;1.30;;
10056;SDS011;5068;51.286;7.518;2023-04-03T03:19:36;3.85;;;1.17;;
10056;SDS011;5068;51.286;7.518;2023-04-03T03:21:10;2.42;;;0.98;;
10056;SDS011;5068;51.286;7.518;2023-04-03T03:22:44;2.28;;;1.05;;
10056;SDS011;5068;51.286;7.518;2023-04-03T03:24:17;3.30;;;1.63;;
10056;SDS011;5068;51.286;7.518;2023-04-03T03:25:54;5.15;;;1.67;;
10056;SDS011;5068;51.286;7.518;2023-04-03T03:27:29;3.72;;;1.70;;
10056;SDS011;5068;51.286;7.518;2023-04-03T03:29:02;2.72;;;1.80;;
10056;SDS011;5068;51.286;7.518;2023-04-03T03:30:36;3.65;;;1.52;;
10056;SDS011;5068;51.286;7.518;2023-04-03T03:32:09;3.70;;;1.67;;
10056;SDS011;5068;51.286;7.518;2023-04-03T03:33:42;3.35;;;1.50;;
10056;SDS011;5068;51.286;7.518;2023-04-03T03:35:16;2.85;;;1.73;;
10056;SDS011;5068;51.286;7.518;2023-04-03T03:36:50;2.72;;;1.38;;
10056;SDS011;5068;51.286;7.518;2023-04-03T03:38:23;2.30;;;1.58;;
10056;SDS011;5068;51.286;7.518;2023-04-03T03:39:57;2.92;;;1.58;;
10056;SDS011;5068;51.286;7.518;2023-04-03T03:41:31;2.25;;;1.40;;
10056;SDS011;5068;51.286;7.518;2023-04-03T03:43:04;3.83;;;1.40;;
10056;SDS011;5068;51.286;7.518;2023-04-03T03:44:37;3.55;;;1.65;;
10056;SDS011;5068;51.286;7.518;2023-04-03T03:46:10;3.45;;;1.48;;
10056;SDS011;5068;51.286;7.518;2023-04-03T03:47:43;3.70;;;1.50;;
10056;SDS011;5068;51.286;7.518;2023-04-03T03:49:16;6.60;;;1.60;;
10056;SDS011;5068;51.286;7.518;2023-04-03T03:50:50;2.55;;;1.63;;
10056;SDS011;5068;51.286;7.518;2023-04-03T03:52:28;3.78;;;1.58;;
10056;SDS011;5068;51.286;7.518;2023-04-03T03:55:35;1.98;;;1.25;;
10056;SDS011;5068;51.286;7.518;2023-04-03T03:57:09;3.00;;;1.52;;
10056;SDS011;5068;51.286;7.518;2023-04-03T03:58:43;3.67;;;1.85;;
10056;SDS011;5068;51.286;7.518;2023-04-03T04:00:17;2.58;;;1.50;;
10056;SDS011;5068;51.286;7.518;2023-04-03T04:01:56;2.60;;;1.67;;
10056;SDS011;5068;51.286;7.518;2023-04-03T04:03:29;4.25;;;1.60;;
10056;SDS011;5068;51.286;7.518;2023-04-03T04:05:03;4.38;;;1.70;;
10056;SDS011;5068;51.286;7.518;2023-04-03T04:06:37;2.72;;;1.60;;
10056;SDS011;5068;51.286;7.518;2023-04-03T04:08:14;3.50;;;1.88;;
10056;SDS011;5068;51.286;7.518;2023-04-03T04:09:49;2.35;;;1.75;;
10056;SDS011;5068;51.286;7.518;2023-04-03T04:11:22;4.32;;;1.52;;
10056;SDS011;5068;51.286;7.518;2023-04-03T04:12:57;2.95;;;1.67;;
10056;SDS011;5068;51.286;7.518;2023-04-03T04:14:32;3.55;;;1.65;;
10056;SDS011;5068;51.286;7.518;2023-04-03T04:16:06;1.77;;;1.38;;
10056;SDS011;5068;51.286;7.518;2023-04-03T04:17:42;3.38;;;1.58;;
10056;SDS011;5068;51.286;7.518;2023-04-03T04:19:16;2.90;;;1.42;;
10056;SDS011;5068;51.286;7.518;2023-04-03T04:20:49;2.25;;;1.50;;
10056;SDS011;5068;51.286;7.518;2023-04-03T04:22:23;2.25;;;1.38;;
10056;SDS011;5068;51.286;7.518;2023-04-03T04:23:58;3.45;;;1.40;;
10056;SDS011;5068;51.286;7.518;2023-04-03T04:25:32;2.40;;;1.33;;
10056;SDS011;5068;51.286;7.518;2023-04-03T04:27:05;3.25;;;1.38;;
10056;SDS011;5068;51.286;7.518;2023-04-03T04:28:39;2.80;;;1.52;;
10056;SDS011;5068;51.286;7.518;2023-04-03T04:30:13;2.42;;;1.60;;
10056;SDS011;5068;51.286;7.518;2023-04-03T04:31:48;4.97;;;1.27;;
10056;SDS011;5068;51.286;7.518;2023-04-03T04:33:21;5.47;;;1.90;;
10056;SDS011;5068;51.286;7.518;2023-04-03T04:34:55;3.03;;;1.90;;
10056;SDS011;5068;51.286;7.518;2023-04-03T04:36:28;2.38;;;1.55;;
10056;SDS011;5068;51.286;7.518;2023-04-03T04:38:02;5.97;;;1.58;;
10056;SDS011;5068;51.286;7.518;2023-04-03T04:39:38;4.78;;;1.60;;
10056;SDS011;5068;51.286;7.518;2023-04-03T04:41:11;3.20;;;1.60;;
10056;SDS011;5068;51.286;7.518;2023-04-03T04:42:44;3.92;;;1.80;;
10056;SDS011;5068;51.286;7.518;2023-04-03T04:44:17;2.72;;;1.63;;
10056;SDS011;5068;51.286;7.518;2023-04-03T04:45:59;3.63;;;2.00;;
10056;SDS011;5068;51.286;7.518;2023-04-03T04:47:37;2.15;;;1.50;;
10056;SDS011;5068;51.286;7.518;2023-04-03T04:49:10;1.73;;;1.27;;
10056;SDS011;5068;51.286;7.518;2023-04-03T04:50:43;2.72;;;1.63;;
10056;SDS011;5068;51.286;7.518;2023-04-03T04:52:16;2.38;;;1.58;;
10056;SDS011;5068;51.286;7.518;2023-04-03T04:53:50;2.30;;;1.60;;
10056;SDS011;5068;51.286;7.518;2023-04-03T04:55:27;2.90;;;1.63;;
10056;SDS011;5068;51.286;7.518;2023-04-03T04:57:01;2.10;;;1.65;;
10056;SDS011;5068;51.286;7.518;2023-04-03T04:58:34;2.22;;;1.45;;
10056;SDS011;5068;51.286;7.518;2023-04-03T05:00:08;2.65;;;2.00;;
10056;SDS011;5068;51.286;7.518;2023-04-03T05:01:43;2.45;;;1.33;;
10056;SDS011;5068;51.286;7.518;2023-04-03T05:03:20;1.90;;;1.20;;
10056;SDS011;5068;51.286;7.518;2023-04-03T05:04:53;1.48;;;1.15;;
10056;SDS011;5068;51.286;7.518;2023-04-03T05:06:31;2.05;;;1.50;;
10056;SDS011;5068;51.286;7.518;2023-04-03T05:08:08;1.42;;;1.13;;
10056;SDS011;5068;51.286;7.518;2023-04-03T05:11:19;1.90;;;1.23;;
10056;SDS011;5068;51.286;7.518;2023-04-03T05:12:56;2.33;;;1.25;;
10056;SDS011;5068;51.286;7.518;2023-04-03T05:14:28;2.03;;;1.20;;
10056;SDS011;5068;51.286;7.518;2023-04-03T05:16:06;2.22;;;1.25;;
10056;SDS011;5068;51.286;7.518;2023-04-03T05:17:40;2.30;;;0.98;;
10056;SDS011;5068;51.286;7.518;2023-04-03T05:19:16;1.63;;;0.95;;
10056;SDS011;5068;51.286;7.518;2023-04-03T05:20:49;1.67;;;1.00;;
10056;SDS011;5068;51.286;7.518;2023-04-03T05:22:24;1.75;;;1.20;;
10056;SDS011;5068;51.286;7.518;2023-04-03T05:24:00;2.38;;;1.20;;
10056;SDS011;5068;51.286;7.518;2023-04-03T05:25:37;3.17;;;1.27;;
10056;SDS011;5068;51.286;7.518;2023-04-03T05:27:13;3.95;;;1.40;;
10056;SDS011;5068;51.286;7.518;2023-04-03T05:28:49;2.20;;;1.25;;
10056;SDS011;5068;51.286;7.518;2023-04-03T05:30:23;3.10;;;1.30;;
10056;SDS011;5068;51.286;7.518;2023-04-03T05:31:57;2.70;;;1.33;;
10056;SDS011;5068;51.286;7.518;2023-04-03T05:33:30;2.75;;;1.30;;
10056;SDS011;5068;51.286;7.518;2023-04-03T05:35:05;3.97;;;1.38;;
10056;SDS011;5068;51.286;7.518;2023-04-03T05:36:40;3.80;;;1.27;;
10056;SDS011;5068;51.286;7.518;2023-04-03T05:38:14;2.13;;;1.30;;
10056;SDS011;5068;51.286;7.518;2023-04-03T05:39:48;3.85;;;1.60;;
10056;SDS011;5068;51.286;7.518;2023-04-03T05:41:21;2.90;;;1.90;;
10056;SDS011;5068;51.286;7.518;2023-04-03T05:42:56;2.92;;;1.55;;
10056;SDS011;5068;51.286;7.518;2023-04-03T05:44:32;2.75;;;1.42;;
10056;SDS011;5068;51.286;7.518;2023-04-03T05:46:08;3.03;;;1.25;;
10056;SDS011;5068;51.286;7.518;2023-04-03T05:47:46;3.45;;;1.42;;
10056;SDS011;5068;51.286;7.518;2023-04-03T05:49:19;2.30;;;1.50;;
10056;SDS011;5068;51.286;7.518;2023-04-03T05:50:53;1.77;;;1.25;;
10056;SDS011;5068;51.286;7.518;2023-04-03T05:52:29;1.45;;;1.02;;
10056;SDS011;5068;51.286;7.518;2023-04-03T05:54:08;2.35;;;1.30;;
10056;SDS011;5068;51.286;7.518;2023-04-03T05:55:49;3.58;;;1.40;;
10056;SDS011;5068;51.286;7.518;2023-04-03T05:57:22;2.53;;;1.30;;
10056;SDS011;5068;51.286;7.518;2023-04-03T05:58:57;2.17;;;1.48;;
10056;SDS011;5068;51.286;7.518;2023-04-03T06:00:31;3.47;;;1.77;;
10056;SDS011;5068;51.286;7.518;2023-04-03T06:02:06;2.05;;;1.30;;
10056;SDS011;5068;51.286;7.518;2023-04-03T06:03:40;2.00;;;1.20;;
10056;SDS011;5068;51.286;7.518;2023-04-03T06:05:14;2.53;;;1.50;;
10056;SDS011;5068;51.286;7.518;2023-04-03T06:06:48;2.70;;;1.60;;
10056;SDS011;5068;51.286;7.518;2023-04-03T06:08:23;3.00;;;1.50;;
10056;SDS011;5068;51.286;7.518;2023-04-03T06:09:57;3.63;;;1.80;;
10056;SDS011;5068;51.286;7.518;2023-04-03T06:11:30;3.20;;;1.92;;
10056;SDS011;5068;51.286;7.518;2023-04-03T06:13:03;2.55;;;1.75;;
10056;SDS011;5068;51.286;7.518;2023-04-03T06:14:38;2.70;;;1.83;;
10056;SDS011;5068;51.286;7.518;2023-04-03T06:16:12;3.42;;;1.90;;
10056;SDS011;5068;51.286;7.518;2023-04-03T06:19:20;4.40;;;2.10;;
10056;SDS011;5068;51.286;7.518;2023-04-03T06:20:58;2.95;;;1.88;;
10056;SDS011;5068;51.286;7.518;2023-04-03T06:22:32;3.95;;;2.00;;
10056;SDS011;5068;51.286;7.518;2023-04-03T06:24:06;5.35;;;2.00;;
10056;SDS011;5068;51.286;7.518;2023-04-03T06:25:39;4.30;;;2.38;;
10056;SDS011;5068;51.286;7.518;2023-04-03T06:27:13;4.65;;;2.25;;
10056;SDS011;5068;51.286;7.518;2023-04-03T06:28:46;4.20;;;2.00;;
10056;SDS011;5068;51.286;7.518;2023-04-03T06:30:21;3.25;;;2.33;;
10056;SDS011;5068;51.286;7.518;2023-04-03T06:31:54;3.88;;;2.35;;
10056;SDS011;5068;51.286;7.518;2023-04-03T06:33:28;3.67;;;2.35;;
10056;SDS011;5068;51.286;7.518;2023-04-03T06:35:01;4.72;;;2.58;;
10056;SDS011;5068;51.286;7.518;2023-04-03T06:36:35;4.55;;;2.50;;
10056;SDS011;5068;51.286;7.518;2023-04-03T06:38:08;4.22;;;2.30;;
10056;SDS011;5068;51.286;7.518;2023-04-03T06:39:42;2.55;;;2.13;;
10056;SDS011;5068;51.286;7.518;2023-04-03T06:41:16;3.80;;;2.40;;
10056;SDS011;5068;51.286;7.518;2023-04-03T06:42:49;3.47;;;1.90;;
10056;SDS011;5068;51.286;7.518;2023-04-03T06:44:24;5.05;;;2.45;;
10056;SDS011;5068;51.286;7.518;2023-04-03T06:45:58;3.22;;;1.85;;
10056;SDS011;5068;51.286;7.518;2023-04-03T06:47:31;2.90;;;2.05;;
10056;SDS011;5068;51.286;7.518;2023-04-03T06:49:04;3.28;;;2.00;;
10056;SDS011;5068;51.286;7.518;2023-04-03T06:50:39;3.97;;;2.10;;
10056;SDS011;5068;51.286;7.518;2023-04-03T06:52:13;2.65;;;1.98;;
10056;SDS011;5068;51.286;7.518;2023-04-03T06:53:47;2.90;;;1.85;;
10056;SDS011;5068;51.286;7.518;2023-04-03T06:55:23;3.67;;;2.03;;
10056;SDS011;5068;51.286;7.518;2023-04-03T06:56:56;5.20;;;2.30;;
10056;SDS011;5068;51.286;7.518;2023-04-03T06:58:29;3.25;;;1.85;;
10056;SDS011;5068;51.286;7.518;2023-04-03T07:00:03;6.10;;;1.98;;
10056;SDS011;5068;51.286;7.518;2023-04-03T07:01:40;3.25;;;1.67;;
10056;SDS011;5068;51.286;7.518;2023-04-03T07:03:13;3.55;;;1.70;;
10056;SDS011;5068;51.286;7.518;2023-04-03T07:04:47;3.00;;;1.80;;
10056;SDS011;5068;51.286;7.518;2023-04-03T07:06:20;5.10;;;2.08;;
10056;SDS011;5068;51.286;7.518;2023-04-03T07:07:54;2.20;;;1.55;;
10056;SDS011;5068;51.286;7.518;2023-04-03T07:09:27;5.30;;;1.92;;
10056;SDS011;5068;51.286;7.518;2023-04-03T07:11:01;4.82;;;1.90;;
10056;SDS011;5068;51.286;7.518;2023-04-03T07:12:34;6.80;;;2.10;;
10056;SDS011;5068;51.286;7.518;2023-04-03T07:14:07;3.78;;;1.95;;
10056;SDS011;5068;51.286;7.518;2023-04-03T07:15:40;4.85;;;1.50;;
10056;SDS011;5068;51.286;7.518;2023-04-03T07:17:15;4.60;;;1.90;;
10056;SDS011;5068;51.286;7.518;2023-04-03T07:18:48;4.55;;;1.70;;
10056;SDS011;5068;51.286;7.518;2023-04-03T07:20:21;2.92;;;1.58;;
10056;SDS011;5068;51.286;7.518;2023-04-03T07:21:54;4.40;;;1.70;;
10056;SDS011;5068;51.286;7.518;2023-04-03T07:23:27;5.45;;;1.83;;
10056;SDS011;5068;51.286;7.518;2023-04-03T07:25:01;6.88;;;1.70;;
10056;SDS011;5068;51.286;7.518;2023-04-03T07:26:34;3.35;;;1.50;;
10056;SDS011;5068;51.286;7.518;2023-04-03T07:28:08;3.15;;;1.60;;
10056;SDS011;5068;51.286;7.518;2023-04-03T07:29:41;3.35;;;1.70;;
10056;SDS011;5068;51.286;7.518;2023-04-03T07:31:15;3.72;;;1.48;;
10056;SDS011;5068;51.286;7.518;2023-04-03T07:32:51;3.22;;;1.40;;
10056;SDS011;5068;51.286;7.518;2023-04-03T07:34:24;4.18;;;1.50;;
10056;SDS011;5068;51.286;7.518;2023-04-03T07:35:58;1.63;;;1.13;;
10056;SDS011;5068;51.286;7.518;2023-04-03T07:37:31;2.28;;;1.27;;
10056;SDS011;5068;51.286;7.518;2023-04-03T07:39:04;2.60;;;1.30;;
10056;SDS011;5068;51.286;7.518;2023-04-03T07:40:39;2.95;;;1.40;;
10056;SDS011;5068;51.286;7.518;2023-04-03T07:42:12;3.28;;;1.20;;
10056;SDS011;5068;51.286;7.518;2023-04-03T07:43:45;4.40;;;1.40;;
10056;SDS011;5068;51.286;7.518;2023-04-03T07:45:21;3.67;;;1.40;;
10056;SDS011;5068;51.286;7.518;2023-04-03T07:46:55;2.97;;;1.13;;
10056;SDS011;5068;51.286;7.518;2023-04-03T07:48:29;4.28;;;1.27;;
10056;SDS011;5068;51.286;7.518;2023-04-03T07:50:03;3.55;;;1.17;;
10056;SDS011;5068;51.286;7.518;2023-04-03T07:51:37;2.53;;;0.90;;
10056;SDS011;5068;51.286;7.518;2023-04-03T07:53:11;4.80;;;1.48;;
10056;SDS011;5068;51.286;7.518;2023-04-03T07:54:44;5.65;;;1.15;;
10056;SDS011;5068;51.286;7.518;2023-04-03T07:56:17;4.15;;;1.45;;
10056;SDS011;5068;51.286;7.518;2023-04-03T07:57:51;3.10;;;0.75;;
10056;SDS011;5068;51.286;7.518;2023-04-03T07:59:24;2.70;;;0.80;;
10056;SDS011;5068;51.286;7.518;2023-04-03T08:00:58;4.20;;;1.15;;
10056;SDS011;5068;51.286;7.518;2023-04-03T08:02:31;3.90;;;1.23;;
10056;SDS011;5068;51.286;7.518;2023-04-03T08:04:06;4.32;;;1.15;;
10056;SDS011;5068;51.286;7.518;2023-04-03T08:05:40;2.00;;;1.00;;
10056;SDS011;5068;51.286;7.518;2023-04-03T08:07:14;2.90;;;0.90;;
10056;SDS011;5068;51.286;7.518;2023-04-03T08:08:48;2.53;;;0.68;;
10056;SDS011;5068;51.286;7.518;2023-04-03T08:10:21;2.40;;;0.85;;
10056;SDS011;5068;51.286;7.518;2023-04-03T08:11:54;4.05;;;1.15;;
10056;SDS011;5068;51.286;7.518;2023-04-03T08:13:28;3.90;;;0.90;;
10056;SDS011;5068;51.286;7.518;2023-04-03T08:15:03;3.13;;;1.20;;
10056;SDS011;5068;51.286;7.518;2023-04-03T08:16:37;2.30;;;0.80;;
10056;SDS011;5068;51.286;7.518;2023-04-03T08:18:10;2.10;;;0.70;;
10056;SDS011;5068;51.286;7.518;2023-04-03T08:19:45;4.47;;;1.20;;
10056;SDS011;5068;51.286;7.518;2023-04-03T08:21:18;4.00;;;1.15;;
10056;SDS011;5068;51.286;7.518;2023-04-03T08:22:51;2.92;;;0.82;;
10056;SDS011;5068;51.286;7.518;2023-04-03T08:24:24;3.08;;;0.70;;
10056;SDS011;5068;51.286;7.518;2023-04-03T08:25:58;4.22;;;0.98;;
10056;SDS011;5068;51.286;7.518;2023-04-03T08:27:31;2.50;;;0.80;;
10056;SDS011;5068;51.286;7.518;2023-04-03T08:29:04;2.33;;;0.85;;
10056;SDS011;5068;51.286;7.518;2023-04-03T08:30:38;1.67;;;0.85;;
10056;SDS011;5068;51.286;7.518;2023-04-03T08:32:13;2.67;;;0.88;;
10056;SDS011;5068;51.286;7.518;2023-04-03T08:33:47;1.85;;;0.70;;
10056;SDS011;5068;51.286;7.518;2023-04-03T08:35:21;2.67;;;0.70;;
10056;SDS011;5068;51.286;7.518;2023-04-03T08:36:54;4.28;;;0.77;;
10056;SDS011;5068;51.286;7.518;2023-04-03T08:38:28;2.60;;;0.77;;
10056;SDS011;5068;51.286;7.518;2023-04-03T08:40:01;2.55;;;0.93;;
10056;SDS011;5068;51.286;7.518;2023-04-03T08:41:35;2.10;;;0.70;;
10056;SDS011;5068;51.286;7.518;2023-04-03T08:43:23;2.25;;;0.73;;
10056;SDS011;5068;51.286;7.518;2023-04-03T08:45:10;2.30;;;0.70;;
10056;SDS011;5068;51.286;7.518;2023-04-03T08:46:53;2.38;;;0.68;;
10056;SDS011;5068;51.286;7.518;2023-04-03T08:48:42;2.13;;;0.57;;
10056;SDS011;5068;51.286;7.518;2023-04-03T08:50:16;3.50;;;0.73;;
10056;SDS011;5068;51.286;7.518;2023-04-03T08:51:54;1.50;;;0.50;;
10056;SDS011;5068;51.286;7.518;2023-04-03T08:53:32;1.27;;;0.50;;
10056;SDS011;5068;51.286;7.518;2023-04-03T08:55:13;0.98;;;0.50;;
10056;SDS011;5068;51.286;7.518;2023-04-03T08:56:56;2.20;;;0.40;;
10056;SDS011;5068;51.286;7.518;2023-04-03T08:58:36;1.98;;;0.52;;
10056;SDS011;5068;51.286;7.518;2023-04-03T09:00:20;1.00;;;0.28;;
10056;SDS011;5068;51.286;7.518;2023-04-03T09:01:56;1.05;;;0.40;;
10056;SDS011;5068;51.286;7.518;2023-04-03T09:03:37;1.15;;;0.50;;
10056;SDS011;5068;51.286;7.518;2023-04-03T09:05:13;0.80;;;0.38;;
10056;SDS011;5068;51.286;7.518;2023-04-03T09:06:51;1.17;;;0.52;;
10056;SDS011;5068;51.286;7.518;2023-04-03T09:08:32;2.10;;;0.32;;
10056;SDS011;5068;51.286;7.518;2023-04-03T09:10:12;1.17;;;0.35;;
10056;SDS011;5068;51.286;7.518;2023-04-03T09:11:50;0.77;;;0.30;;
10056;SDS011;5068;51.286;7.518;2023-04-03T09:13:43;0.90;;;0.32;;
10056;SDS011;5068;51.286;7.518;2023-04-03T09:15:24;1.95;;;0.30;;
10056;SDS011;5068;51.286;7.518;2023-04-03T09:17:11;1.67;;;0.40;;
10056;SDS011;5068;51.286;7.518;2023-04-03T09:18:52;1.08;;;0.35;;
10056;SDS011;5068;51.286;7.518;2023-04-03T09:20:39;1.08;;;0.45;;
10056;SDS011;5068;51.286;7.518;2023-04-03T09:22:23;0.43;;;0.20;;
10056;SDS011;5068;51.286;7.518;2023-04-03T09:24:00;1.55;;;0.20;;
10056;SDS011;5068;51.286;7.518;2023-04-03T09:25:38;0.80;;;0.22;;
10056;SDS011;5068;51.286;7.518;2023-04-03T09:27:12;0.88;;;0.40;;
10056;SDS011;5068;51.286;7.518;2023-04-03T09:28:46;0.93;;;0.10;;
10056;SDS011;5068;51.286;7.518;2023-04-03T09:30:22;0.95;;;0.30;;
10056;SDS011;5068;51.286;7.518;2023-04-03T09:31:59;1.05;;;0.28;;
10056;SDS011;5068;51.286;7.518;2023-04-03T09:33:34;0.98;;;0.20;;
10056;SDS011;5068;51.286;7.518;2023-04-03T09:35:15;2.03;;;0.20;;
10056;SDS011;5068;51.286;7.518;2023-04-03T09:37:33;0.55;;;0.20;;
10056;SDS011;5068;51.286;7.518;2023-04-03T09:39:14;0.70;;;0.22;;
10056;SDS011;5068;51.286;7.518;2023-04-03T09:40:49;1.13;;;0.30;;
10056;SDS011;5068;51.286;7.518;2023-04-03T09:42:34;1.08;;;0.20;;
10056;SDS011;5068;51.286;7.518;2023-04-03T09:44:22;0.45;;;0.20;;
10056;SDS011;5068;51.286;7.518;2023-04-03T09:48:04;1.05;;;0.22;;
10056;SDS011;5068;51.286;7.518;2023-04-03T09:49:47;1.13;;;0.20;;